createdAt,value
2023-07-18T00:01:03.552Z,95307.63
2023-07-18T00:03:30.081Z,95308.03
2023-07-18T00:05:56.569Z,95311.13
2023-07-18T00:08:23.346Z,95311.88
2023-07-18T00:10:49.960Z,95314.41
2023-07-18T00:13:16.270Z,95311.13
2023-07-18T00:15:42.717Z,95313.44
2023-07-18T00:18:09.224Z,95311.59
2023-07-18T00:20:35.827Z,95311.66
2023-07-18T00:23:02.316Z,95317.47
2023-07-18T00:25:28.841Z,95311.28
2023-07-18T00:27:55.569Z,95303.53
2023-07-18T00:30:22.238Z,95300.25
2023-07-18T00:32:48.717Z,95297.59
2023-07-18T00:35:15.323Z,95311.84
2023-07-18T00:37:41.745Z,95307.31
2023-07-18T00:40:08.441Z,95308.19
2023-07-18T00:42:34.981Z,95306.31
2023-07-18T00:45:01.708Z,95315.44
2023-07-18T00:47:28.073Z,95313.84
2023-07-18T00:49:54.478Z,95316.97
2023-07-18T00:52:20.853Z,95313.69
2023-07-18T00:54:47.237Z,95306.69
2023-07-18T00:57:13.672Z,95301.34
2023-07-18T00:59:40.057Z,95307.75
2023-07-18T01:02:06.893Z,95311.22
2023-07-18T01:04:33.508Z,95307.13
2023-07-18T01:06:59.992Z,95313.75
2023-07-18T01:09:26.425Z,95304.47
2023-07-18T01:11:52.847Z,95307.94
2023-07-18T01:14:19.282Z,95304.97
2023-07-18T01:16:45.701Z,95309.50
2023-07-18T01:19:12.055Z,95301.69
2023-07-18T01:21:38.450Z,95297.22
2023-07-18T01:24:04.953Z,95304.03
2023-07-18T01:26:31.327Z,95305.88
2023-07-18T01:28:57.755Z,95305.06
2023-07-18T01:31:24.330Z,95309.81
2023-07-18T01:33:50.879Z,95304.03
2023-07-18T01:36:17.487Z,95306.72
2023-07-18T01:38:43.931Z,95306.94
2023-07-18T01:41:10.486Z,95310.63
2023-07-18T01:43:36.931Z,95304.44
2023-07-18T01:46:03.523Z,95305.06
2023-07-18T01:48:29.959Z,95299.09
2023-07-18T01:50:56.540Z,95303.22
2023-07-18T01:53:23.096Z,95295.59
2023-07-18T01:55:49.552Z,95303.22
2023-07-18T01:58:16.139Z,95303.84
2023-07-18T02:00:42.585Z,95296.47
2023-07-18T02:03:11.494Z,95289.25
2023-07-18T02:05:37.973Z,95280.44
2023-07-18T02:08:04.565Z,95281.03
2023-07-18T02:10:31.162Z,95288.00
2023-07-18T02:12:57.596Z,95288.88
2023-07-18T02:15:24.156Z,95275.09
2023-07-18T02:17:50.655Z,95280.69
2023-07-18T02:20:17.045Z,95271.59
2023-07-18T02:22:43.570Z,95278.59
2023-07-18T02:25:10.102Z,95273.88
2023-07-18T02:27:36.759Z,95269.53
2023-07-18T02:30:03.131Z,95274.88
2023-07-18T02:32:29.501Z,95271.19
2023-07-18T02:34:56.019Z,95265.00
2023-07-18T02:37:22.396Z,95261.50
2023-07-18T02:39:48.842Z,95260.91
2023-07-18T02:42:15.308Z,95268.75
2023-07-18T02:44:42.046Z,95264.28
2023-07-18T02:47:08.377Z,95262.00
2023-07-18T02:49:34.748Z,95270.88
2023-07-18T02:52:01.114Z,95262.09
2023-07-18T02:54:27.852Z,95266.00
2023-07-18T02:56:54.326Z,95259.63
2023-07-18T02:59:20.721Z,95265.19
2023-07-18T03:01:47.315Z,95263.09
2023-07-18T03:04:13.916Z,95270.13
2023-07-18T03:06:40.329Z,95268.09
2023-07-18T03:09:06.761Z,95263.59
2023-07-18T03:11:33.224Z,95267.13
2023-07-18T03:14:00.119Z,95264.06
2023-07-18T03:16:26.526Z,95263.22
2023-07-18T03:18:53.060Z,95266.97
2023-07-18T03:21:19.706Z,95256.72
2023-07-18T03:23:46.364Z,95261.63
2023-07-18T03:26:12.691Z,95261.03
2023-07-18T03:28:39.261Z,95263.91
2023-07-18T03:31:05.723Z,95257.56
2023-07-18T03:33:32.052Z,95263.13
2023-07-18T03:35:58.465Z,95258.38
2023-07-18T03:38:24.930Z,95258.16
2023-07-18T03:40:51.307Z,95254.25
2023-07-18T03:43:17.834Z,95250.16
2023-07-18T03:45:44.278Z,95251.59
2023-07-18T03:48:10.908Z,95245.44
2023-07-18T03:50:37.288Z,95241.72
2023-07-18T03:53:03.901Z,95235.34
2023-07-18T03:55:30.339Z,95234.91
2023-07-18T03:57:56.664Z,95235.72
2023-07-18T04:00:23.014Z,95234.91
2023-07-18T04:02:49.510Z,95235.13
2023-07-18T04:05:16.349Z,95224.03
2023-07-18T04:07:42.870Z,95228.13
2023-07-18T04:10:09.216Z,95236.16
2023-07-18T04:12:35.572Z,95232.44
2023-07-18T04:15:02.021Z,95232.44
2023-07-18T04:17:28.488Z,95235.31
2023-07-18T04:19:54.956Z,95235.56
2023-07-18T04:22:21.430Z,95231.22
2023-07-18T04:24:48.168Z,95242.75
2023-07-18T04:27:14.499Z,95238.63
2023-07-18T04:29:40.939Z,95232.66
2023-07-18T04:32:07.463Z,95240.28
2023-07-18T04:34:34.256Z,95241.13
2023-07-18T04:37:00.826Z,95240.66
2023-07-18T04:39:27.372Z,95241.28
2023-07-18T04:41:55.562Z,95234.28
2023-07-18T04:44:22.839Z,95234.50
2023-07-18T04:46:49.281Z,95241.44
2023-07-18T04:49:16.041Z,95236.09
2023-07-18T04:51:42.462Z,95231.94
2023-07-18T04:54:09.054Z,95227.81
2023-07-18T04:56:35.581Z,95233.78
2023-07-18T04:59:02.270Z,95234.38
2023-07-18T05:01:28.844Z,95230.25
2023-07-18T05:03:57.817Z,95230.22
2023-07-18T05:06:24.874Z,95228.53
2023-07-18T05:08:51.455Z,95235.50
2023-07-18T05:11:18.204Z,95229.34
2023-07-18T05:13:44.991Z,95243.28
2023-07-18T05:16:11.506Z,95235.44
2023-07-18T05:18:37.939Z,95219.31
2023-07-18T05:21:04.377Z,95220.94
2023-07-18T05:23:30.919Z,95215.53
2023-07-18T05:25:57.688Z,95223.97
2023-07-18T05:28:24.168Z,95219.84
2023-07-18T05:30:50.529Z,95209.47
2023-07-18T05:33:16.887Z,95205.69
2023-07-18T05:35:43.270Z,95211.00
2023-07-18T05:38:09.669Z,95202.09
2023-07-18T05:40:36.049Z,95200.81
2023-07-18T05:43:02.383Z,95207.38
2023-07-18T05:45:28.750Z,95205.88
2023-07-18T05:47:55.174Z,95215.53
2023-07-18T05:50:21.573Z,95205.53
2023-07-18T05:52:47.945Z,95204.53
2023-07-18T05:55:14.383Z,95201.38
2023-07-18T05:57:40.745Z,95200.44
2023-07-18T06:00:07.209Z,95196.34
2023-07-18T06:02:33.791Z,95196.69
2023-07-18T06:05:00.124Z,95192.31
2023-07-18T06:07:26.446Z,95192.16
2023-07-18T06:09:52.852Z,95191.72
2023-07-18T06:12:19.179Z,95191.84
2023-07-18T06:14:45.554Z,95183.53
2023-07-18T06:17:12.058Z,95188.00
2023-07-18T06:19:38.473Z,95190.19
2023-07-18T06:22:04.873Z,95183.97
2023-07-18T06:24:31.253Z,95180.19
2023-07-18T06:26:57.642Z,95178.56
2023-07-18T06:29:23.970Z,95179.59
2023-07-18T06:31:50.338Z,95179.38
2023-07-18T06:34:16.770Z,95179.97
2023-07-18T06:36:43.221Z,95170.22
2023-07-18T06:39:09.670Z,95176.66
2023-07-18T06:41:36.049Z,95176.66
2023-07-18T06:44:02.379Z,95180.50
2023-07-18T06:46:28.784Z,95182.13
2023-07-18T06:48:55.101Z,95179.03
2023-07-18T06:51:21.599Z,95189.13
2023-07-18T06:53:48.095Z,95185.94
2023-07-18T06:56:14.430Z,95170.34
2023-07-18T06:58:40.773Z,95168.91
2023-07-18T07:01:07.117Z,95157.81
2023-07-18T07:03:33.650Z,95160.16
2023-07-18T07:06:00.009Z,95156.16
2023-07-18T07:08:26.342Z,95148.66
2023-07-18T07:10:52.647Z,95153.31
2023-07-18T07:13:19.053Z,95159.75
2023-07-18T07:15:45.407Z,95160.03
2023-07-18T07:18:11.714Z,95157.53
2023-07-18T07:20:38.078Z,95158.25
2023-07-18T07:23:04.516Z,95158.59
2023-07-18T07:25:30.906Z,95148.47
2023-07-18T07:27:57.248Z,95152.03
2023-07-18T07:30:23.559Z,95136.50
2023-07-18T07:32:49.950Z,95132.53
2023-07-18T07:35:16.285Z,95127.69
2023-07-18T07:37:42.610Z,95117.69
2023-07-18T07:40:08.931Z,95113.75
2023-07-18T07:42:35.305Z,95105.41
2023-07-18T07:45:01.635Z,95104.03
2023-07-18T07:47:28.117Z,95122.13
2023-07-18T07:55:15.999Z,95121.09
2023-07-18T07:57:42.974Z,95125.00
2023-07-18T08:00:09.512Z,95122.50
2023-07-18T08:02:36.080Z,95115.69
2023-07-18T08:05:02.894Z,95117.66
2023-07-18T08:07:29.352Z,95116.00
2023-07-18T08:09:56.023Z,95103.22
2023-07-18T08:12:22.595Z,95121.84
2023-07-18T08:14:51.178Z,95123.53
2023-07-18T08:17:18.033Z,95121.34
2023-07-18T08:19:47.039Z,95106.34
2023-07-18T08:22:15.746Z,95087.59
2023-07-18T08:24:42.190Z,95065.66
2023-07-18T08:27:08.584Z,95058.81
2023-07-18T08:29:35.143Z,95068.03
2023-07-18T08:32:02.348Z,95079.13
2023-07-18T08:34:29.155Z,95076.06
2023-07-18T08:36:55.542Z,95063.19
2023-07-18T08:39:21.927Z,95052.44
2023-07-18T08:41:48.295Z,95033.44
2023-07-18T08:44:15.584Z,95040.22
2023-07-18T08:46:42.025Z,95024.78
2023-07-18T08:49:08.938Z,95030.19
2023-07-18T08:51:35.374Z,95037.22
2023-07-18T08:54:01.771Z,95051.31
2023-07-18T08:56:28.210Z,95041.59
2023-07-18T08:58:54.531Z,95052.44
2023-07-18T09:01:21.028Z,95049.56
2023-07-18T09:03:47.623Z,95044.59
2023-07-18T09:06:14.038Z,95064.97
2023-07-18T09:19:23.252Z,95046.63
2023-07-18T10:23:44.206Z,95010.44
2023-07-18T10:26:11.095Z,95016.22
2023-07-18T10:28:37.580Z,95040.03
2023-07-18T10:31:04.018Z,95053.16
2023-07-18T10:33:30.805Z,95066.16
2023-07-18T10:35:57.592Z,95077.56
2023-07-18T10:38:23.984Z,95093.06
2023-07-18T10:40:50.579Z,95105.06
2023-07-18T10:43:16.960Z,95113.16
2023-07-18T10:45:43.665Z,95106.66
2023-07-18T10:48:10.168Z,95100.69
2023-07-18T10:50:36.506Z,95094.13
2023-07-18T10:53:02.931Z,95095.28
2023-07-18T10:55:29.312Z,95085.69
2023-07-18T10:57:55.917Z,95097.72
2023-07-18T11:00:22.367Z,95088.81
2023-07-18T11:02:48.949Z,95094.72
2023-07-18T11:05:15.314Z,95091.13
2023-07-18T11:07:41.939Z,95086.16
2023-07-18T11:10:08.336Z,95090.53
2023-07-18T11:12:34.743Z,95098.16
2023-07-18T11:15:01.834Z,95105.56
2023-07-18T11:17:28.201Z,95102.56
2023-07-18T11:19:54.596Z,95101.59
2023-07-18T11:22:21.329Z,95119.09
2023-07-18T11:24:47.700Z,95133.13
2023-07-18T11:27:14.063Z,95145.13
2023-07-18T11:29:40.410Z,95129.50
2023-07-18T11:32:06.978Z,95113.56
2023-07-18T11:34:33.740Z,95096.97
2023-07-18T11:37:01.168Z,95106.03
2023-07-18T11:39:27.591Z,95099.50
2023-07-18T11:41:54.129Z,95090.44
2023-07-18T11:44:20.750Z,95083.03
2023-07-18T11:46:47.787Z,95063.56
2023-07-18T11:49:14.186Z,95030.16
2023-07-18T11:51:40.550Z,95048.47
2023-07-18T11:54:06.937Z,95057.59
2023-07-18T11:56:33.281Z,95059.69
2023-07-18T11:58:59.701Z,95064.78
2023-07-18T12:01:26.172Z,95077.53
2023-07-18T12:03:52.738Z,95113.97
2023-07-18T12:06:19.732Z,95142.53
2023-07-18T12:08:46.356Z,95124.34
2023-07-18T12:11:12.748Z,95062.03
2023-07-18T12:13:39.202Z,95008.66
2023-07-18T12:16:05.561Z,94987.53
2023-07-18T12:18:32.889Z,94961.56
2023-07-18T12:20:59.287Z,94958.72
2023-07-18T12:23:25.616Z,94947.84
2023-07-18T12:28:22.263Z,95084.22
2023-07-18T12:30:48.644Z,95099.03
2023-07-18T12:33:15.103Z,95084.78
2023-07-18T12:35:41.451Z,95050.09
2023-07-18T12:46:06.900Z,94869.59
2023-07-18T12:48:33.370Z,94851.44
2023-07-18T12:50:59.720Z,94829.69
2023-07-18T12:53:26.042Z,94832.69
2023-07-18T12:55:52.373Z,94829.19
2023-07-18T12:58:18.738Z,94821.59
2023-07-18T13:00:45.121Z,94816.06
2023-07-18T13:03:11.815Z,94815.28
2023-07-18T13:05:38.331Z,94805.25
2023-07-18T13:08:04.739Z,94783.34
2023-07-18T13:10:31.109Z,94750.44
2023-07-18T13:12:57.504Z,94737.06
2023-07-18T13:15:24.110Z,94756.16
2023-07-18T13:17:50.497Z,94806.09
2023-07-18T13:20:17.876Z,94781.22
2023-07-18T13:22:44.390Z,94748.50
2023-07-18T13:25:12.921Z,94761.78
2023-07-18T13:27:42.151Z,94749.47
2023-07-18T13:30:10.191Z,94739.56
2023-07-18T13:32:36.666Z,94721.06
2023-07-18T13:35:03.086Z,94770.00
2023-07-18T13:37:30.155Z,94793.28
2023-07-18T13:39:57.581Z,94854.84
2023-07-18T13:42:24.173Z,94867.56
2023-07-18T13:44:51.214Z,94884.72
2023-07-18T13:47:17.840Z,94863.00
2023-07-18T13:52:13.484Z,94782.66
2023-07-18T13:54:40.223Z,94834.34
2023-07-18T13:57:07.653Z,94882.66
2023-07-18T13:59:38.538Z,94874.63
2023-07-18T14:02:05.116Z,94844.38
2023-07-18T14:04:31.623Z,94805.63
2023-07-18T14:06:59.482Z,94807.50
2023-07-18T14:09:25.817Z,94835.09
2023-07-18T14:11:53.210Z,94895.16
2023-07-18T14:14:21.051Z,94890.63
2023-07-18T14:16:49.071Z,94879.50
2023-07-18T14:19:15.636Z,94878.66
2023-07-18T14:24:20.073Z,94990.47
2023-07-18T14:26:46.593Z,94956.22
2023-07-18T14:29:13.001Z,94916.66
2023-07-18T14:31:39.459Z,94889.56
2023-07-18T14:34:07.350Z,94880.06
2023-07-18T14:36:34.234Z,94873.03
2023-07-18T14:39:00.910Z,94880.06
2023-07-18T14:41:27.792Z,94855.03
2023-07-18T14:43:56.691Z,94878.78
2023-07-18T14:46:23.532Z,94869.19
2023-07-18T14:48:50.314Z,94844.72
2023-07-18T14:51:18.955Z,94882.13
2023-07-18T14:53:46.006Z,94878.53
2023-07-18T14:56:12.384Z,94872.31
2023-07-18T14:58:38.763Z,94833.97
2023-07-18T15:01:06.292Z,94811.88
2023-07-18T15:03:32.767Z,94825.00
2023-07-18T15:05:59.204Z,94846.47
2023-07-18T15:08:28.348Z,94855.03
2023-07-18T15:10:55.100Z,94853.81
2023-07-18T15:13:21.715Z,94840.94
2023-07-18T15:15:48.065Z,94851.59
2023-07-18T15:18:14.475Z,94836.97
2023-07-18T15:20:40.951Z,94834.03
2023-07-18T15:23:07.472Z,94844.72
2023-07-18T15:25:34.067Z,94824.66
2023-07-18T15:28:00.502Z,94796.88
2023-07-18T15:30:27.250Z,94784.69
2023-07-18T15:32:53.855Z,94802.09
2023-07-18T15:35:20.433Z,94807.22
2023-07-18T15:37:47.043Z,94808.06
2023-07-18T15:40:13.633Z,94796.06
2023-07-18T15:42:40.697Z,94794.69
2023-07-18T15:45:07.222Z,94788.34
2023-07-18T15:47:34.053Z,94777.91
2023-07-18T15:50:00.704Z,94787.22
2023-07-18T15:52:27.135Z,94790.75
2023-07-18T15:54:53.892Z,94786.13
2023-07-18T15:57:22.250Z,94767.13
2023-07-18T15:59:48.984Z,94782.06
2023-07-18T16:02:15.558Z,94791.34
2023-07-18T16:04:41.989Z,94789.94
2023-07-18T16:07:08.509Z,94790.38
2023-07-18T16:09:34.941Z,94782.22
2023-07-18T16:12:01.478Z,94785.50
2023-07-18T16:14:27.875Z,94773.97
2023-07-18T16:16:54.230Z,94792.97
2023-07-18T16:19:20.608Z,94795.91
2023-07-18T16:21:47.088Z,94775.06
2023-07-18T16:24:13.523Z,94732.44
2023-07-18T16:26:39.863Z,94735.13
2023-07-18T16:29:06.283Z,94711.22
2023-07-18T16:31:32.896Z,94724.00
2023-07-18T16:33:59.383Z,94723.22
2023-07-18T16:36:25.708Z,94701.78
2023-07-18T16:38:53.582Z,94738.59
2023-07-18T16:41:20.010Z,94734.38
2023-07-18T16:43:46.463Z,94757.13
2023-07-18T16:46:12.858Z,94745.28
2023-07-18T16:48:39.193Z,94753.94
2023-07-18T16:51:05.937Z,94754.94
2023-07-18T16:53:38.094Z,94735.41
2023-07-18T16:56:09.898Z,94689.88
2023-07-18T17:47:25.429Z,94712.78
2023-07-18T20:40:17.122Z,94756.97
2023-07-18T20:42:43.560Z,94770.38
2023-07-18T20:45:09.903Z,94767.75
2023-07-18T20:47:36.331Z,94764.97
2023-07-18T20:50:02.732Z,94774.97
2023-07-18T20:52:29.070Z,94776.41
2023-07-18T20:54:55.391Z,94794.31
2023-07-18T20:57:21.825Z,94799.16
2023-07-18T20:59:48.214Z,94790.28
2023-07-18T21:02:14.562Z,94785.91
2023-07-18T21:04:40.906Z,94795.88
2023-07-18T21:07:07.277Z,94788.63
2023-07-18T21:09:33.643Z,94801.47
2023-07-18T21:11:59.961Z,94806.59
2023-07-18T21:14:28.701Z,94804.31
2023-07-18T21:16:55.066Z,94807.72
2023-07-18T21:19:21.722Z,94809.59
2023-07-18T21:21:48.057Z,94804.19
2023-07-18T21:24:14.390Z,94801.00
2023-07-18T21:26:40.760Z,94805.88
2023-07-18T21:29:07.095Z,94802.66
2023-07-18T21:31:33.551Z,94807.56
2023-07-18T21:34:00.174Z,94809.38
2023-07-18T21:36:26.576Z,94807.25
2023-07-18T21:38:52.975Z,94818.06
2023-07-18T21:41:19.416Z,94816.19
2023-07-18T21:43:45.949Z,94811.59
2023-07-18T21:46:12.427Z,94818.88
2023-07-18T21:48:38.909Z,94814.00
2023-07-18T21:51:05.248Z,94821.56
2023-07-18T21:53:31.579Z,94816.94
2023-07-18T21:55:57.946Z,94823.38
2023-07-18T21:58:24.325Z,94822.59
2023-07-18T22:00:51.001Z,94816.38
2023-07-18T22:03:18.567Z,94824.00
2023-07-18T22:05:45.366Z,94821.25
2023-07-18T22:08:11.749Z,94824.47
2023-07-18T22:10:38.115Z,94827.13
2023-07-18T22:13:04.495Z,94825.22
2023-07-18T22:15:30.848Z,94834.63
2023-07-18T22:17:58.752Z,94827.03
2023-07-18T22:20:28.337Z,94830.84
2023-07-18T22:22:54.702Z,94833.53
2023-07-18T22:25:21.134Z,94834.84
2023-07-18T22:27:47.529Z,94829.47
2023-07-18T22:30:13.912Z,94837.00
2023-07-18T22:32:40.321Z,94835.06
2023-07-18T22:35:06.738Z,94838.03
2023-07-18T22:37:34.090Z,94844.75
2023-07-18T22:40:00.714Z,94843.63
2023-07-18T22:42:27.116Z,94843.63
2023-07-18T22:44:53.505Z,94840.16
2023-07-18T22:47:19.987Z,94841.69
2023-07-18T22:49:48.746Z,94844.63
2023-07-18T22:52:15.140Z,94848.13
2023-07-18T22:54:41.562Z,94842.75
2023-07-18T22:59:34.258Z,94847.09
2023-07-18T23:02:00.796Z,94845.19
2023-07-18T23:04:27.127Z,94843.22
2023-07-18T23:06:53.454Z,94842.94
2023-07-18T23:09:19.840Z,94835.88
2023-07-18T23:11:46.177Z,94841.25
2023-07-18T23:14:12.542Z,94842.84
2023-07-18T23:16:38.975Z,94838.75
2023-07-18T23:19:05.421Z,94831.97
2023-07-18T23:21:32.813Z,94837.31
2023-07-18T23:23:59.162Z,94837.31
2023-07-18T23:26:25.559Z,94837.81
2023-07-18T23:28:51.953Z,94837.25
2023-07-18T23:31:18.606Z,94845.06
2023-07-18T23:33:45.445Z,94838.28
2023-07-18T23:36:11.854Z,94828.59
2023-07-18T23:38:38.199Z,94838.00
2023-07-18T23:41:04.574Z,94833.69
2023-07-18T23:43:30.989Z,94836.94
2023-07-18T23:45:57.473Z,94834.47
2023-07-18T23:48:23.871Z,94832.88
2023-07-18T23:50:50.229Z,94837.50
2023-07-18T23:53:16.564Z,94839.38
2023-07-18T23:55:42.974Z,94835.56
2023-07-18T23:58:09.461Z,94837.19
